sensor_id;sensor_type;location;lat;lon;timestamp;temperature;humidity
57664;DHT22;43493;53.098;6.064;2022-07-29T00:02:18;15.60;99.90
57664;DHT22;43493;53.098;6.064;2022-07-29T00:04:44;15.60;99.90
57664;DHT22;43493;53.098;6.064;2022-07-29T00:07:09;15.60;99.90
57664;DHT22;43493;53.098;6.064;2022-07-29T00:09:35;15.60;99.90
57664;DHT22;43493;53.098;6.064;2022-07-29T00:12:01;15.60;99.90
57664;DHT22;43493;53.098;6.064;2022-07-29T00:14:28;15.60;99.90
57664;DHT22;43493;53.098;6.064;2022-07-29T00:16:53;15.60;99.90
57664;DHT22;43493;53.098;6.064;2022-07-29T00:19:19;15.60;99.90
57664;DHT22;43493;53.098;6.064;2022-07-29T00:21:45;15.60;99.90
57664;DHT22;43493;53.098;6.064;2022-07-29T00:24:11;15.60;99.90
57664;DHT22;43493;53.098;6.064;2022-07-29T00:26:36;15.60;99.90
57664;DHT22;43493;53.098;6.064;2022-07-29T00:29:03;15.60;99.90
57664;DHT22;43493;53.098;6.064;2022-07-29T00:31:29;15.60;99.90
57664;DHT22;43493;53.098;6.064;2022-07-29T00:33:55;15.60;99.90
57664;DHT22;43493;53.098;6.064;2022-07-29T00:36:21;15.60;99.90
57664;DHT22;43493;53.098;6.064;2022-07-29T00:38:48;15.60;99.90
57664;DHT22;43493;53.098;6.064;2022-07-29T00:41:14;15.60;99.90
57664;DHT22;43493;53.098;6.064;2022-07-29T00:43:40;15.60;99.90
57664;DHT22;43493;53.098;6.064;2022-07-29T00:46:06;15.60;99.90
57664;DHT22;43493;53.098;6.064;2022-07-29T00:48:32;15.60;99.90
57664;DHT22;43493;53.098;6.064;2022-07-29T00:50:58;15.60;99.90
57664;DHT22;43493;53.098;6.064;2022-07-29T00:53:25;15.60;99.90
57664;DHT22;43493;53.098;6.064;2022-07-29T00:55:53;15.60;99.90
57664;DHT22;43493;53.098;6.064;2022-07-29T00:58:20;15.60;99.90
57664;DHT22;43493;53.098;6.064;2022-07-29T01:00:45;15.50;99.90
57664;DHT22;43493;53.098;6.064;2022-07-29T01:03:11;15.50;99.90
57664;DHT22;43493;53.098;6.064;2022-07-29T01:05:37;15.50;99.90
57664;DHT22;43493;53.098;6.064;2022-07-29T01:08:05;15.40;99.90
57664;DHT22;43493;53.098;6.064;2022-07-29T01:10:31;15.40;99.90
57664;DHT22;43493;53.098;6.064;2022-07-29T01:12:58;15.50;99.90
57664;DHT22;43493;53.098;6.064;2022-07-29T01:15:24;15.40;99.90
57664;DHT22;43493;53.098;6.064;2022-07-29T01:18:05;15.40;99.90
57664;DHT22;43493;53.098;6.064;2022-07-29T01:20:39;15.40;99.90
57664;DHT22;43493;53.098;6.064;2022-07-29T01:23:32;15.40;99.90
57664;DHT22;43493;53.098;6.064;2022-07-29T01:27:16;15.40;99.90
57664;DHT22;43493;53.098;6.064;2022-07-29T01:29:15;15.40;99.90
57664;DHT22;43493;53.098;6.064;2022-07-29T01:31:47;15.40;99.90
57664;DHT22;43493;53.098;6.064;2022-07-29T01:34:56;15.40;99.90
57664;DHT22;43493;53.098;6.064;2022-07-29T01:37:21;15.40;99.90
57664;DHT22;43493;53.098;6.064;2022-07-29T01:39:49;15.40;99.90
57664;DHT22;43493;53.098;6.064;2022-07-29T01:42:44;15.30;99.90
57664;DHT22;43493;53.098;6.064;2022-07-29T01:48:22;15.30;99.90
57664;DHT22;43493;53.098;6.064;2022-07-29T01:50:51;15.30;99.90
57664;DHT22;43493;53.098;6.064;2022-07-29T01:53:28;15.30;99.90
57664;DHT22;43493;53.098;6.064;2022-07-29T01:55:56;15.30;99.90
57664;DHT22;43493;53.098;6.064;2022-07-29T01:58:24;15.30;99.90
57664;DHT22;43493;53.098;6.064;2022-07-29T02:00:51;15.30;99.90
57664;DHT22;43493;53.098;6.064;2022-07-29T02:03:18;15.30;99.90
57664;DHT22;43493;53.098;6.064;2022-07-29T02:05:46;15.30;99.90
57664;DHT22;43493;53.098;6.064;2022-07-29T02:08:13;15.30;99.90
57664;DHT22;43493;53.098;6.064;2022-07-29T02:10:42;15.30;99.90
57664;DHT22;43493;53.098;6.064;2022-07-29T02:13:09;15.40;99.90
57664;DHT22;43493;53.098;6.064;2022-07-29T02:15:37;15.30;99.90
57664;DHT22;43493;53.098;6.064;2022-07-29T02:18:07;15.40;99.90
57664;DHT22;43493;53.098;6.064;2022-07-29T02:20:35;15.30;99.90
57664;DHT22;43493;53.098;6.064;2022-07-29T02:23:02;15.40;99.90
57664;DHT22;43493;53.098;6.064;2022-07-29T02:25:29;15.40;99.90
57664;DHT22;43493;53.098;6.064;2022-07-29T02:27:55;15.40;99.90
57664;DHT22;43493;53.098;6.064;2022-07-29T02:30:22;15.30;99.90
57664;DHT22;43493;53.098;6.064;2022-07-29T02:32:49;15.40;99.90
57664;DHT22;43493;53.098;6.064;2022-07-29T02:35:17;15.40;99.90
57664;DHT22;43493;53.098;6.064;2022-07-29T02:37:44;15.30;99.90
57664;DHT22;43493;53.098;6.064;2022-07-29T02:40:31;15.40;99.90
57664;DHT22;43493;53.098;6.064;2022-07-29T02:42:58;15.30;99.90
57664;DHT22;43493;53.098;6.064;2022-07-29T02:45:24;15.40;99.90
57664;DHT22;43493;53.098;6.064;2022-07-29T02:47:50;15.40;99.90
57664;DHT22;43493;53.098;6.064;2022-07-29T02:50:42;15.40;99.90
57664;DHT22;43493;53.098;6.064;2022-07-29T02:53:20;15.40;99.90
57664;DHT22;43493;53.098;6.064;2022-07-29T02:56:01;15.30;99.90
57664;DHT22;43493;53.098;6.064;2022-07-29T02:58:36;15.40;99.90
57664;DHT22;43493;53.098;6.064;2022-07-29T03:01:11;15.30;99.90
57664;DHT22;43493;53.098;6.064;2022-07-29T03:03:38;15.40;99.90
57664;DHT22;43493;53.098;6.064;2022-07-29T03:06:05;15.30;99.90
57664;DHT22;43493;53.098;6.064;2022-07-29T03:08:32;15.30;99.90
57664;DHT22;43493;53.098;6.064;2022-07-29T03:11:00;15.40;99.90
57664;DHT22;43493;53.098;6.064;2022-07-29T03:13:27;15.30;99.90
57664;DHT22;43493;53.098;6.064;2022-07-29T03:15:53;15.40;99.90
57664;DHT22;43493;53.098;6.064;2022-07-29T03:18:20;15.40;99.90
57664;DHT22;43493;53.098;6.064;2022-07-29T03:20:46;15.30;99.90
57664;DHT22;43493;53.098;6.064;2022-07-29T03:23:12;15.30;99.90
57664;DHT22;43493;53.098;6.064;2022-07-29T03:25:43;15.30;99.90
57664;DHT22;43493;53.098;6.064;2022-07-29T03:28:09;15.30;99.90
57664;DHT22;43493;53.098;6.064;2022-07-29T03:30:34;15.30;99.90
57664;DHT22;43493;53.098;6.064;2022-07-29T03:33:00;15.40;99.90
57664;DHT22;43493;53.098;6.064;2022-07-29T03:35:26;15.30;99.90
57664;DHT22;43493;53.098;6.064;2022-07-29T03:37:52;15.30;99.90
57664;DHT22;43493;53.098;6.064;2022-07-29T03:40:26;15.30;99.90
57664;DHT22;43493;53.098;6.064;2022-07-29T03:42:54;15.30;99.90
57664;DHT22;43493;53.098;6.064;2022-07-29T03:45:21;15.40;99.90
57664;DHT22;43493;53.098;6.064;2022-07-29T03:47:55;15.40;99.90
57664;DHT22;43493;53.098;6.064;2022-07-29T03:50:22;15.40;99.90
57664;DHT22;43493;53.098;6.064;2022-07-29T03:52:48;15.40;99.90
57664;DHT22;43493;53.098;6.064;2022-07-29T03:55:15;15.40;99.90
57664;DHT22;43493;53.098;6.064;2022-07-29T03:57:41;15.40;99.90
57664;DHT22;43493;53.098;6.064;2022-07-29T04:00:09;15.40;99.90
57664;DHT22;43493;53.098;6.064;2022-07-29T04:02:36;15.30;99.90
57664;DHT22;43493;53.098;6.064;2022-07-29T04:05:02;15.40;99.90
57664;DHT22;43493;53.098;6.064;2022-07-29T04:07:28;15.40;99.90
57664;DHT22;43493;53.098;6.064;2022-07-29T04:09:54;15.40;99.90
57664;DHT22;43493;53.098;6.064;2022-07-29T04:12:20;15.30;99.90
57664;DHT22;43493;53.098;6.064;2022-07-29T04:14:46;15.30;99.90
57664;DHT22;43493;53.098;6.064;2022-07-29T04:17:12;15.30;99.90
57664;DHT22;43493;53.098;6.064;2022-07-29T04:19:38;15.30;99.90
57664;DHT22;43493;53.098;6.064;2022-07-29T04:22:03;15.30;99.90
57664;DHT22;43493;53.098;6.064;2022-07-29T04:24:29;15.40;99.90
57664;DHT22;43493;53.098;6.064;2022-07-29T04:26:55;15.40;99.90
57664;DHT22;43493;53.098;6.064;2022-07-29T04:29:21;15.30;99.90
57664;DHT22;43493;53.098;6.064;2022-07-29T04:31:47;15.30;99.90
57664;DHT22;43493;53.098;6.064;2022-07-29T04:34:13;15.30;99.90
57664;DHT22;43493;53.098;6.064;2022-07-29T04:36:38;15.20;99.90
57664;DHT22;43493;53.098;6.064;2022-07-29T04:39:04;15.30;99.90
57664;DHT22;43493;53.098;6.064;2022-07-29T04:41:30;15.30;99.90
57664;DHT22;43493;53.098;6.064;2022-07-29T04:43:56;15.30;99.90
57664;DHT22;43493;53.098;6.064;2022-07-29T04:46:22;15.30;99.90
57664;DHT22;43493;53.098;6.064;2022-07-29T04:48:48;15.30;99.90
57664;DHT22;43493;53.098;6.064;2022-07-29T04:51:17;15.30;99.90
57664;DHT22;43493;53.098;6.064;2022-07-29T04:53:43;15.30;99.90
57664;DHT22;43493;53.098;6.064;2022-07-29T04:56:08;15.30;99.90
57664;DHT22;43493;53.098;6.064;2022-07-29T04:58:35;15.40;99.90
57664;DHT22;43493;53.098;6.064;2022-07-29T05:01:00;15.40;99.90
57664;DHT22;43493;53.098;6.064;2022-07-29T05:03:26;15.40;99.90
57664;DHT22;43493;53.098;6.064;2022-07-29T05:05:52;15.40;99.90
57664;DHT22;43493;53.098;6.064;2022-07-29T05:08:18;15.40;99.90
57664;DHT22;43493;53.098;6.064;2022-07-29T05:10:44;15.40;99.90
57664;DHT22;43493;53.098;6.064;2022-07-29T05:13:10;15.50;99.90
57664;DHT22;43493;53.098;6.064;2022-07-29T05:15:36;15.50;99.90
57664;DHT22;43493;53.098;6.064;2022-07-29T05:18:03;15.50;99.90
57664;DHT22;43493;53.098;6.064;2022-07-29T05:20:29;15.60;99.90
57664;DHT22;43493;53.098;6.064;2022-07-29T05:22:59;15.60;99.90
57664;DHT22;43493;53.098;6.064;2022-07-29T05:25:26;15.60;99.90
57664;DHT22;43493;53.098;6.064;2022-07-29T05:27:52;15.70;99.90
57664;DHT22;43493;53.098;6.064;2022-07-29T05:30:18;15.80;99.90
57664;DHT22;43493;53.098;6.064;2022-07-29T05:32:44;15.80;99.90
57664;DHT22;43493;53.098;6.064;2022-07-29T05:35:11;15.80;99.90
57664;DHT22;43493;53.098;6.064;2022-07-29T05:37:37;15.90;99.90
57664;DHT22;43493;53.098;6.064;2022-07-29T05:40:03;16.00;99.90
57664;DHT22;43493;53.098;6.064;2022-07-29T05:42:29;16.00;99.90
57664;DHT22;43493;53.098;6.064;2022-07-29T05:44:55;16.00;99.90
57664;DHT22;43493;53.098;6.064;2022-07-29T05:47:22;16.00;99.90
57664;DHT22;43493;53.098;6.064;2022-07-29T05:49:47;16.00;99.90
57664;DHT22;43493;53.098;6.064;2022-07-29T05:52:14;16.10;99.90
57664;DHT22;43493;53.098;6.064;2022-07-29T05:54:40;16.20;99.90
57664;DHT22;43493;53.098;6.064;2022-07-29T05:57:06;16.40;99.90
57664;DHT22;43493;53.098;6.064;2022-07-29T05:59:35;16.80;99.90
57664;DHT22;43493;53.098;6.064;2022-07-29T06:02:01;17.00;99.90
57664;DHT22;43493;53.098;6.064;2022-07-29T06:04:27;17.10;99.90
57664;DHT22;43493;53.098;6.064;2022-07-29T06:06:52;17.20;99.90
57664;DHT22;43493;53.098;6.064;2022-07-29T06:09:18;17.20;99.90
57664;DHT22;43493;53.098;6.064;2022-07-29T06:11:44;17.20;99.90
57664;DHT22;43493;53.098;6.064;2022-07-29T06:14:10;17.50;99.90
57664;DHT22;43493;53.098;6.064;2022-07-29T06:16:35;17.60;99.90
57664;DHT22;43493;53.098;6.064;2022-07-29T06:19:01;17.70;99.90
57664;DHT22;43493;53.098;6.064;2022-07-29T06:21:27;17.70;99.90
57664;DHT22;43493;53.098;6.064;2022-07-29T06:23:52;17.80;99.90
57664;DHT22;43493;53.098;6.064;2022-07-29T06:26:18;17.90;99.90
57664;DHT22;43493;53.098;6.064;2022-07-29T06:28:44;18.20;99.90
57664;DHT22;43493;53.098;6.064;2022-07-29T06:31:09;19.10;99.90
57664;DHT22;43493;53.098;6.064;2022-07-29T06:33:35;20.30;99.90
57664;DHT22;43493;53.098;6.064;2022-07-29T06:36:04;21.10;99.90
57664;DHT22;43493;53.098;6.064;2022-07-29T06:38:30;22.10;97.50
57664;DHT22;43493;53.098;6.064;2022-07-29T06:40:55;23.30;96.40
57664;DHT22;43493;53.098;6.064;2022-07-29T06:43:40;24.20;90.50
57664;DHT22;43493;53.098;6.064;2022-07-29T06:46:11;24.90;80.40
57664;DHT22;43493;53.098;6.064;2022-07-29T06:48:38;24.90;69.10
57664;DHT22;43493;53.098;6.064;2022-07-29T06:51:05;25.00;69.00
57664;DHT22;43493;53.098;6.064;2022-07-29T06:53:32;25.40;62.20
57664;DHT22;43493;53.098;6.064;2022-07-29T06:55:58;25.80;65.10
57664;DHT22;43493;53.098;6.064;2022-07-29T07:08:10;23.70;61.60
57664;DHT22;43493;53.098;6.064;2022-07-29T07:10:36;23.60;62.20
57664;DHT22;43493;53.098;6.064;2022-07-29T07:13:02;22.70;64.60
57664;DHT22;43493;53.098;6.064;2022-07-29T07:15:29;22.00;67.00
57664;DHT22;43493;53.098;6.064;2022-07-29T07:17:55;21.70;70.10
57664;DHT22;43493;53.098;6.064;2022-07-29T07:20:20;21.60;74.10
57664;DHT22;43493;53.098;6.064;2022-07-29T07:22:46;21.90;76.60
57664;DHT22;43493;53.098;6.064;2022-07-29T07:25:12;22.70;75.60
57664;DHT22;43493;53.098;6.064;2022-07-29T07:27:38;23.80;70.90
57664;DHT22;43493;53.098;6.064;2022-07-29T07:30:05;24.10;66.50
57664;DHT22;43493;53.098;6.064;2022-07-29T07:32:32;24.70;64.90
57664;DHT22;43493;53.098;6.064;2022-07-29T07:34:58;25.10;61.90
57664;DHT22;43493;53.098;6.064;2022-07-29T07:37:24;25.60;60.80
57664;DHT22;43493;53.098;6.064;2022-07-29T07:39:51;26.30;59.30
57664;DHT22;43493;53.098;6.064;2022-07-29T07:49:37;24.20;58.10
57664;DHT22;43493;53.098;6.064;2022-07-29T07:52:03;23.70;59.50
57664;DHT22;43493;53.098;6.064;2022-07-29T07:54:29;23.20;61.10
57664;DHT22;43493;53.098;6.064;2022-07-29T07:56:54;23.20;61.60
57664;DHT22;43493;53.098;6.064;2022-07-29T07:59:20;22.80;63.40
57664;DHT22;43493;53.098;6.064;2022-07-29T08:01:46;22.60;64.90
57664;DHT22;43493;53.098;6.064;2022-07-29T08:04:11;22.40;66.10
57664;DHT22;43493;53.098;6.064;2022-07-29T08:06:37;22.10;68.20
57664;DHT22;43493;53.098;6.064;2022-07-29T08:09:04;21.80;69.20
57664;DHT22;43493;53.098;6.064;2022-07-29T08:11:30;21.70;70.00
57664;DHT22;43493;53.098;6.064;2022-07-29T08:13:56;21.60;72.40
57664;DHT22;43493;53.098;6.064;2022-07-29T08:16:22;21.40;73.40
57664;DHT22;43493;53.098;6.064;2022-07-29T08:18:47;21.10;74.20
57664;DHT22;43493;53.098;6.064;2022-07-29T08:21:14;20.90;76.30
57664;DHT22;43493;53.098;6.064;2022-07-29T08:23:41;20.90;79.10
57664;DHT22;43493;53.098;6.064;2022-07-29T08:26:18;20.80;80.90
57664;DHT22;43493;53.098;6.064;2022-07-29T08:28:46;20.80;81.60
57664;DHT22;43493;53.098;6.064;2022-07-29T08:31:14;20.80;81.40
57664;DHT22;43493;53.098;6.064;2022-07-29T08:33:40;20.60;84.20
57664;DHT22;43493;53.098;6.064;2022-07-29T08:36:06;20.40;86.00
57664;DHT22;43493;53.098;6.064;2022-07-29T08:38:32;20.30;87.40
57664;DHT22;43493;53.098;6.064;2022-07-29T08:41:01;20.10;90.70
57664;DHT22;43493;53.098;6.064;2022-07-29T08:43:30;20.10;90.90
57664;DHT22;43493;53.098;6.064;2022-07-29T08:45:56;20.00;92.20
57664;DHT22;43493;53.098;6.064;2022-07-29T08:48:22;19.90;92.10
57664;DHT22;43493;53.098;6.064;2022-07-29T08:50:55;19.80;93.20
57664;DHT22;43493;53.098;6.064;2022-07-29T08:53:21;19.80;94.00
57664;DHT22;43493;53.098;6.064;2022-07-29T08:55:49;19.80;93.80
57664;DHT22;43493;53.098;6.064;2022-07-29T08:58:17;19.80;95.00
57664;DHT22;43493;53.098;6.064;2022-07-29T09:00:48;19.70;95.50
57664;DHT22;43493;53.098;6.064;2022-07-29T09:03:23;19.60;95.20
57664;DHT22;43493;53.098;6.064;2022-07-29T09:05:50;19.60;95.30
57664;DHT22;43493;53.098;6.064;2022-07-29T09:08:17;19.50;95.70
57664;DHT22;43493;53.098;6.064;2022-07-29T09:10:43;19.40;96.20
57664;DHT22;43493;53.098;6.064;2022-07-29T09:13:09;19.30;96.40
57664;DHT22;43493;53.098;6.064;2022-07-29T09:15:35;19.30;96.70
57664;DHT22;43493;53.098;6.064;2022-07-29T09:18:01;19.40;96.50
57664;DHT22;43493;53.098;6.064;2022-07-29T09:20:27;19.40;97.00
57664;DHT22;43493;53.098;6.064;2022-07-29T09:23:13;19.30;97.50
57664;DHT22;43493;53.098;6.064;2022-07-29T09:25:41;19.30;97.60
57664;DHT22;43493;53.098;6.064;2022-07-29T09:28:08;19.30;98.60
57664;DHT22;43493;53.098;6.064;2022-07-29T09:30:35;19.30;98.60
57664;DHT22;43493;53.098;6.064;2022-07-29T09:33:03;19.40;98.50
57664;DHT22;43493;53.098;6.064;2022-07-29T09:35:30;19.40;98.90
57664;DHT22;43493;53.098;6.064;2022-07-29T09:37:56;19.40;99.30
57664;DHT22;43493;53.098;6.064;2022-07-29T09:40:24;19.40;99.60
57664;DHT22;43493;53.098;6.064;2022-07-29T09:42:51;19.30;99.90
57664;DHT22;43493;53.098;6.064;2022-07-29T09:45:33;19.30;99.90
57664;DHT22;43493;53.098;6.064;2022-07-29T09:48:13;19.20;99.90
57664;DHT22;43493;53.098;6.064;2022-07-29T09:50:40;19.20;99.90
57664;DHT22;43493;53.098;6.064;2022-07-29T09:53:07;19.30;99.90
57664;DHT22;43493;53.098;6.064;2022-07-29T09:55:49;19.40;99.90
57664;DHT22;43493;53.098;6.064;2022-07-29T09:58:20;19.40;99.90
57664;DHT22;43493;53.098;6.064;2022-07-29T10:00:47;19.30;99.90
57664;DHT22;43493;53.098;6.064;2022-07-29T10:03:14;19.40;99.90
57664;DHT22;43493;53.098;6.064;2022-07-29T10:05:41;19.40;99.90
57664;DHT22;43493;53.098;6.064;2022-07-29T10:08:08;19.50;99.90
57664;DHT22;43493;53.098;6.064;2022-07-29T10:10:39;19.80;99.90
57664;DHT22;43493;53.098;6.064;2022-07-29T10:13:07;20.00;99.90
57664;DHT22;43493;53.098;6.064;2022-07-29T10:15:37;20.20;99.90
57664;DHT22;43493;53.098;6.064;2022-07-29T10:18:07;20.40;99.30
57664;DHT22;43493;53.098;6.064;2022-07-29T10:20:34;20.50;98.60
57664;DHT22;43493;53.098;6.064;2022-07-29T10:22:59;20.70;98.90
57664;DHT22;43493;53.098;6.064;2022-07-29T10:25:26;20.80;97.80
57664;DHT22;43493;53.098;6.064;2022-07-29T10:27:52;20.90;96.70
57664;DHT22;43493;53.098;6.064;2022-07-29T10:30:20;20.90;96.70
57664;DHT22;43493;53.098;6.064;2022-07-29T10:38:55;20.80;94.80
57664;DHT22;43493;53.098;6.064;2022-07-29T10:46:24;20.70;96.40
57664;DHT22;43493;53.098;6.064;2022-07-29T10:54:44;20.40;98.10
57664;DHT22;43493;53.098;6.064;2022-07-29T11:05:03;20.30;99.10
57664;DHT22;43493;53.098;6.064;2022-07-29T11:07:29;20.20;98.90
57664;DHT22;43493;53.098;6.064;2022-07-29T11:15:16;20.20;97.70
57664;DHT22;43493;53.098;6.064;2022-07-29T11:20:48;20.20;97.10
57664;DHT22;43493;53.098;6.064;2022-07-29T11:23:28;20.10;97.50
57664;DHT22;43493;53.098;6.064;2022-07-29T11:31:43;20.20;97.70
57664;DHT22;43493;53.098;6.064;2022-07-29T11:34:30;20.40;98.00
57664;DHT22;43493;53.098;6.064;2022-07-29T11:39:42;20.60;96.60
57664;DHT22;43493;53.098;6.064;2022-07-29T11:45:09;20.80;96.70
57664;DHT22;43493;53.098;6.064;2022-07-29T11:47:40;20.90;95.80
57664;DHT22;43493;53.098;6.064;2022-07-29T11:50:14;21.00;96.10
57664;DHT22;43493;53.098;6.064;2022-07-29T11:52:42;21.10;95.80
57664;DHT22;43493;53.098;6.064;2022-07-29T11:55:11;21.20;95.20
57664;DHT22;43493;53.098;6.064;2022-07-29T11:57:54;21.20;93.90
57664;DHT22;43493;53.098;6.064;2022-07-29T12:00:29;21.20;92.80
57664;DHT22;43493;53.098;6.064;2022-07-29T12:02:55;21.30;92.60
57664;DHT22;43493;53.098;6.064;2022-07-29T12:05:29;21.30;91.80
57664;DHT22;43493;53.098;6.064;2022-07-29T12:07:55;21.40;91.80
57664;DHT22;43493;53.098;6.064;2022-07-29T12:10:30;21.50;91.30
57664;DHT22;43493;53.098;6.064;2022-07-29T12:12:56;21.50;91.00
57664;DHT22;43493;53.098;6.064;2022-07-29T12:15:22;21.60;90.50
57664;DHT22;43493;53.098;6.064;2022-07-29T12:17:49;21.60;90.30
57664;DHT22;43493;53.098;6.064;2022-07-29T12:20:28;21.60;90.90
57664;DHT22;43493;53.098;6.064;2022-07-29T12:22:55;21.70;90.40
57664;DHT22;43493;53.098;6.064;2022-07-29T12:25:23;21.80;90.50
57664;DHT22;43493;53.098;6.064;2022-07-29T12:27:59;21.80;90.30
57664;DHT22;43493;53.098;6.064;2022-07-29T12:30:44;21.80;89.00
57664;DHT22;43493;53.098;6.064;2022-07-29T12:33:24;21.80;88.60
57664;DHT22;43493;53.098;6.064;2022-07-29T12:35:53;21.80;89.10
57664;DHT22;43493;53.098;6.064;2022-07-29T12:38:20;21.80;89.40
57664;DHT22;43493;53.098;6.064;2022-07-29T12:40:47;21.70;90.00
57664;DHT22;43493;53.098;6.064;2022-07-29T12:43:19;21.80;90.60
57664;DHT22;43493;53.098;6.064;2022-07-29T12:45:54;21.80;90.30
57664;DHT22;43493;53.098;6.064;2022-07-29T12:48:40;21.90;90.70
57664;DHT22;43493;53.098;6.064;2022-07-29T12:51:07;21.90;90.90
57664;DHT22;43493;53.098;6.064;2022-07-29T12:53:35;21.90;90.90
57664;DHT22;43493;53.098;6.064;2022-07-29T12:56:01;22.00;90.50
57664;DHT22;43493;53.098;6.064;2022-07-29T13:01:11;22.10;88.70
57664;DHT22;43493;53.098;6.064;2022-07-29T13:03:53;22.10;86.90
57664;DHT22;43493;53.098;6.064;2022-07-29T13:06:40;22.20;84.90
57664;DHT22;43493;53.098;6.064;2022-07-29T13:14:04;22.30;82.20
57664;DHT22;43493;53.098;6.064;2022-07-29T13:16:30;22.30;82.10
57664;DHT22;43493;53.098;6.064;2022-07-29T13:19:10;22.30;81.20
57664;DHT22;43493;53.098;6.064;2022-07-29T13:21:37;22.30;79.40
57664;DHT22;43493;53.098;6.064;2022-07-29T13:24:07;22.40;80.00
57664;DHT22;43493;53.098;6.064;2022-07-29T13:26:33;22.40;79.40
57664;DHT22;43493;53.098;6.064;2022-07-29T13:28:59;22.50;79.30
57664;DHT22;43493;53.098;6.064;2022-07-29T13:31:24;22.50;80.20
57664;DHT22;43493;53.098;6.064;2022-07-29T13:33:50;22.50;80.10
57664;DHT22;43493;53.098;6.064;2022-07-29T13:36:16;22.50;80.00
57664;DHT22;43493;53.098;6.064;2022-07-29T13:38:42;22.60;79.50
57664;DHT22;43493;53.098;6.064;2022-07-29T13:41:07;22.60;79.20
57664;DHT22;43493;53.098;6.064;2022-07-29T13:43:33;22.50;79.70
57664;DHT22;43493;53.098;6.064;2022-07-29T13:45:59;22.60;79.00
57664;DHT22;43493;53.098;6.064;2022-07-29T13:48:25;22.70;77.10
57664;DHT22;43493;53.098;6.064;2022-07-29T13:50:51;22.60;76.70
57664;DHT22;43493;53.098;6.064;2022-07-29T13:53:17;22.60;77.30
57664;DHT22;43493;53.098;6.064;2022-07-29T13:55:42;22.70;76.90
57664;DHT22;43493;53.098;6.064;2022-07-29T13:58:08;22.80;76.50
57664;DHT22;43493;53.098;6.064;2022-07-29T14:00:34;22.90;76.40
57664;DHT22;43493;53.098;6.064;2022-07-29T14:02:59;23.00;77.60
57664;DHT22;43493;53.098;6.064;2022-07-29T14:05:25;23.00;77.00
57664;DHT22;43493;53.098;6.064;2022-07-29T14:07:51;23.10;76.20
57664;DHT22;43493;53.098;6.064;2022-07-29T14:10:16;23.10;77.00
57664;DHT22;43493;53.098;6.064;2022-07-29T14:12:42;23.20;76.60
57664;DHT22;43493;53.098;6.064;2022-07-29T14:15:08;23.30;75.70
57664;DHT22;43493;53.098;6.064;2022-07-29T14:17:34;23.30;74.20
57664;DHT22;43493;53.098;6.064;2022-07-29T14:20:00;23.30;74.20
57664;DHT22;43493;53.098;6.064;2022-07-29T14:22:26;23.30;74.60
57664;DHT22;43493;53.098;6.064;2022-07-29T14:24:51;23.40;75.00
57664;DHT22;43493;53.098;6.064;2022-07-29T14:27:18;23.40;74.10
57664;DHT22;43493;53.098;6.064;2022-07-29T14:29:43;23.50;74.10
57664;DHT22;43493;53.098;6.064;2022-07-29T14:32:09;23.50;73.10
57664;DHT22;43493;53.098;6.064;2022-07-29T14:34:36;23.50;71.70
57664;DHT22;43493;53.098;6.064;2022-07-29T14:37:03;23.60;71.70
57664;DHT22;43493;53.098;6.064;2022-07-29T14:39:31;23.60;69.80
57664;DHT22;43493;53.098;6.064;2022-07-29T14:41:56;23.70;69.00
57664;DHT22;43493;53.098;6.064;2022-07-29T14:44:22;23.70;69.70
57664;DHT22;43493;53.098;6.064;2022-07-29T14:46:48;23.70;69.30
57664;DHT22;43493;53.098;6.064;2022-07-29T14:49:14;23.70;68.60
57664;DHT22;43493;53.098;6.064;2022-07-29T14:51:40;23.70;68.70
57664;DHT22;43493;53.098;6.064;2022-07-29T14:54:07;23.60;68.70
57664;DHT22;43493;53.098;6.064;2022-07-29T14:56:32;23.60;69.30
57664;DHT22;43493;53.098;6.064;2022-07-29T14:58:58;23.60;69.50
57664;DHT22;43493;53.098;6.064;2022-07-29T15:01:24;23.70;69.70
57664;DHT22;43493;53.098;6.064;2022-07-29T15:03:50;23.70;70.10
57664;DHT22;43493;53.098;6.064;2022-07-29T15:06:16;23.70;70.10
57664;DHT22;43493;53.098;6.064;2022-07-29T15:08:42;23.80;70.40
57664;DHT22;43493;53.098;6.064;2022-07-29T15:11:07;23.80;70.10
57664;DHT22;43493;53.098;6.064;2022-07-29T15:13:34;23.90;69.70
57664;DHT22;43493;53.098;6.064;2022-07-29T15:15:59;23.90;69.40
57664;DHT22;43493;53.098;6.064;2022-07-29T15:18:25;23.90;69.00
57664;DHT22;43493;53.098;6.064;2022-07-29T15:20:51;24.00;68.30
57664;DHT22;43493;53.098;6.064;2022-07-29T15:23:17;24.00;67.40
57664;DHT22;43493;53.098;6.064;2022-07-29T15:25:42;24.00;67.20
57664;DHT22;43493;53.098;6.064;2022-07-29T15:28:08;24.00;66.30
57664;DHT22;43493;53.098;6.064;2022-07-29T15:30:35;24.00;65.70
57664;DHT22;43493;53.098;6.064;2022-07-29T15:33:06;24.00;66.20
57664;DHT22;43493;53.098;6.064;2022-07-29T15:35:33;24.00;66.00
57664;DHT22;43493;53.098;6.064;2022-07-29T15:37:59;24.00;65.30
57664;DHT22;43493;53.098;6.064;2022-07-29T15:40:25;24.00;65.40
57664;DHT22;43493;53.098;6.064;2022-07-29T15:42:50;24.00;65.10
57664;DHT22;43493;53.098;6.064;2022-07-29T15:45:16;24.00;65.10
57664;DHT22;43493;53.098;6.064;2022-07-29T15:47:42;24.00;64.70
57664;DHT22;43493;53.098;6.064;2022-07-29T15:50:08;24.00;63.90
57664;DHT22;43493;53.098;6.064;2022-07-29T15:52:39;24.00;64.60
57664;DHT22;43493;53.098;6.064;2022-07-29T15:55:05;23.90;64.50
57664;DHT22;43493;53.098;6.064;2022-07-29T15:57:30;24.00;63.20
57664;DHT22;43493;53.098;6.064;2022-07-29T15:59:56;24.10;63.40
57664;DHT22;43493;53.098;6.064;2022-07-29T16:02:22;24.10;62.30
57664;DHT22;43493;53.098;6.064;2022-07-29T16:04:48;24.10;61.50
57664;DHT22;43493;53.098;6.064;2022-07-29T16:07:14;24.20;60.80
57664;DHT22;43493;53.098;6.064;2022-07-29T16:09:40;24.20;60.40
57664;DHT22;43493;53.098;6.064;2022-07-29T16:12:06;24.20;60.60
57664;DHT22;43493;53.098;6.064;2022-07-29T16:14:33;24.20;60.40
57664;DHT22;43493;53.098;6.064;2022-07-29T16:16:59;24.20;60.20
57664;DHT22;43493;53.098;6.064;2022-07-29T16:19:28;24.20;60.80
57664;DHT22;43493;53.098;6.064;2022-07-29T16:21:54;24.30;60.70
57664;DHT22;43493;53.098;6.064;2022-07-29T16:24:20;24.30;60.40
57664;DHT22;43493;53.098;6.064;2022-07-29T16:26:45;24.20;60.00
57664;DHT22;43493;53.098;6.064;2022-07-29T16:29:11;24.10;59.50
57664;DHT22;43493;53.098;6.064;2022-07-29T16:31:37;24.10;59.60
57664;DHT22;43493;53.098;6.064;2022-07-29T16:34:02;24.00;59.90
57664;DHT22;43493;53.098;6.064;2022-07-29T16:36:28;23.90;59.50
57664;DHT22;43493;53.098;6.064;2022-07-29T16:38:54;23.90;59.80
57664;DHT22;43493;53.098;6.064;2022-07-29T16:41:19;23.90;59.40
57664;DHT22;43493;53.098;6.064;2022-07-29T16:43:45;23.80;59.10
57664;DHT22;43493;53.098;6.064;2022-07-29T16:46:12;23.80;59.30
57664;DHT22;43493;53.098;6.064;2022-07-29T16:48:38;23.80;59.00